Terminal Aerodrome Forecast
Issued by NWS

Home | Current Version | Previous Version | Text Only | Print | Product List | Glossary On
Versions: 1 2 3 4 5 6 7 8 9 10 11 12 13 14 15 16 17 18
917
FTUS43 KGRB 271507 AAA
TAFATW
TAF AMD
KATW 271507Z 2715/2812 27013G20KT P6SM SCT035 BKN060
     FM272100 27012KT 5SM -SHRA OVC027
     FM280100 28007KT P6SM -SHRA OVC024 PROB30 2804/2808 4SM -SHRA
      OVC012
     FM281000 34005KT P6SM OVC011=

USA.gov is the U.S. government's official web portal to all federal, state and local government web resources and services.